sensor_id;sensor_type;location;lat;lon;timestamp;P1;durP1;ratioP1;P2;durP2;ratioP2
21099;SDS011;10708;50.824;4.408;2022-07-23T00:01:12;17.17;;;11.00;;
21099;SDS011;10708;50.824;4.408;2022-07-23T00:06:16;17.20;;;11.25;;
21099;SDS011;10708;50.824;4.408;2022-07-23T00:11:18;18.35;;;11.32;;
21099;SDS011;10708;50.824;4.408;2022-07-23T00:16:22;15.82;;;11.88;;
21099;SDS011;10708;50.824;4.408;2022-07-23T00:21:26;17.40;;;11.70;;
21099;SDS011;10708;50.824;4.408;2022-07-23T00:26:28;18.48;;;11.82;;
21099;SDS011;10708;50.824;4.408;2022-07-23T00:31:30;18.23;;;12.40;;
21099;SDS011;10708;50.824;4.408;2022-07-23T00:36:34;20.80;;;13.10;;
21099;SDS011;10708;50.824;4.408;2022-07-23T00:41:36;17.95;;;12.23;;
21099;SDS011;10708;50.824;4.408;2022-07-23T00:46:38;18.65;;;13.57;;
21099;SDS011;10708;50.824;4.408;2022-07-23T00:51:41;22.73;;;13.02;;
21099;SDS011;10708;50.824;4.408;2022-07-23T00:56:44;19.77;;;13.45;;
21099;SDS011;10708;50.824;4.408;2022-07-23T01:01:46;21.42;;;13.68;;
21099;SDS011;10708;50.824;4.408;2022-07-23T01:06:50;20.90;;;12.52;;
21099;SDS011;10708;50.824;4.408;2022-07-23T01:11:53;22.50;;;14.07;;
21099;SDS011;10708;50.824;4.408;2022-07-23T01:16:56;20.35;;;12.95;;
21099;SDS011;10708;50.824;4.408;2022-07-23T01:22:01;22.60;;;14.13;;
21099;SDS011;10708;50.824;4.408;2022-07-23T01:27:07;19.63;;;12.88;;
21099;SDS011;10708;50.824;4.408;2022-07-23T01:32:09;19.60;;;13.68;;
21099;SDS011;10708;50.824;4.408;2022-07-23T01:37:12;20.75;;;13.32;;
21099;SDS011;10708;50.824;4.408;2022-07-23T01:42:15;19.65;;;13.57;;
21099;SDS011;10708;50.824;4.408;2022-07-23T01:47:17;21.95;;;13.65;;
21099;SDS011;10708;50.824;4.408;2022-07-23T01:52:20;23.05;;;14.20;;
21099;SDS011;10708;50.824;4.408;2022-07-23T01:57:23;20.17;;;14.02;;
21099;SDS011;10708;50.824;4.408;2022-07-23T02:02:26;21.67;;;14.75;;
21099;SDS011;10708;50.824;4.408;2022-07-23T02:07:28;22.50;;;14.77;;
21099;SDS011;10708;50.824;4.408;2022-07-23T02:12:32;21.23;;;13.77;;
21099;SDS011;10708;50.824;4.408;2022-07-23T02:17:34;20.33;;;13.88;;
21099;SDS011;10708;50.824;4.408;2022-07-23T02:22:37;22.73;;;15.75;;
21099;SDS011;10708;50.824;4.408;2022-07-23T02:27:41;23.38;;;14.80;;
21099;SDS011;10708;50.824;4.408;2022-07-23T02:32:43;23.35;;;15.55;;
21099;SDS011;10708;50.824;4.408;2022-07-23T02:37:46;24.50;;;14.82;;
21099;SDS011;10708;50.824;4.408;2022-07-23T02:42:49;23.58;;;15.18;;
21099;SDS011;10708;50.824;4.408;2022-07-23T02:47:53;20.05;;;14.57;;
21099;SDS011;10708;50.824;4.408;2022-07-23T02:52:55;22.73;;;14.90;;
21099;SDS011;10708;50.824;4.408;2022-07-23T02:57:59;26.30;;;16.33;;
21099;SDS011;10708;50.824;4.408;2022-07-23T03:03:01;23.88;;;15.70;;
21099;SDS011;10708;50.824;4.408;2022-07-23T03:08:03;26.02;;;16.02;;
21099;SDS011;10708;50.824;4.408;2022-07-23T03:13:07;23.70;;;16.02;;
21099;SDS011;10708;50.824;4.408;2022-07-23T03:18:10;22.92;;;15.68;;
21099;SDS011;10708;50.824;4.408;2022-07-23T03:23:12;24.17;;;16.08;;
21099;SDS011;10708;50.824;4.408;2022-07-23T03:28:16;25.00;;;16.23;;
21099;SDS011;10708;50.824;4.408;2022-07-23T03:33:20;28.65;;;16.45;;
21099;SDS011;10708;50.824;4.408;2022-07-23T03:38:22;27.45;;;16.92;;
21099;SDS011;10708;50.824;4.408;2022-07-23T03:43:26;25.38;;;16.35;;
21099;SDS011;10708;50.824;4.408;2022-07-23T03:48:28;27.48;;;16.48;;
21099;SDS011;10708;50.824;4.408;2022-07-23T03:53:30;30.20;;;16.98;;
21099;SDS011;10708;50.824;4.408;2022-07-23T03:58:34;24.17;;;17.20;;
21099;SDS011;10708;50.824;4.408;2022-07-23T04:03:36;28.88;;;17.20;;
21099;SDS011;10708;50.824;4.408;2022-07-23T04:08:39;25.45;;;16.15;;
21099;SDS011;10708;50.824;4.408;2022-07-23T04:13:42;26.10;;;16.73;;
21099;SDS011;10708;50.824;4.408;2022-07-23T04:18:45;23.35;;;15.13;;
21099;SDS011;10708;50.824;4.408;2022-07-23T04:23:47;26.77;;;14.40;;
21099;SDS011;10708;50.824;4.408;2022-07-23T04:28:51;20.30;;;14.68;;
21099;SDS011;10708;50.824;4.408;2022-07-23T04:33:54;25.27;;;13.88;;
21099;SDS011;10708;50.824;4.408;2022-07-23T04:38:56;25.25;;;14.05;;
21099;SDS011;10708;50.824;4.408;2022-07-23T04:44:00;21.90;;;14.27;;
21099;SDS011;10708;50.824;4.408;2022-07-23T04:49:02;21.90;;;13.98;;
21099;SDS011;10708;50.824;4.408;2022-07-23T04:54:05;21.17;;;13.63;;
21099;SDS011;10708;50.824;4.408;2022-07-23T04:59:08;23.17;;;14.38;;
21099;SDS011;10708;50.824;4.408;2022-07-23T05:04:11;21.52;;;13.23;;
21099;SDS011;10708;50.824;4.408;2022-07-23T05:09:13;21.60;;;13.80;;
21099;SDS011;10708;50.824;4.408;2022-07-23T05:14:17;21.27;;;13.32;;
21099;SDS011;10708;50.824;4.408;2022-07-23T05:19:19;21.40;;;13.40;;
21099;SDS011;10708;50.824;4.408;2022-07-23T05:24:21;19.58;;;12.73;;
21099;SDS011;10708;50.824;4.408;2022-07-23T05:29:25;18.02;;;12.63;;
21099;SDS011;10708;50.824;4.408;2022-07-23T05:34:27;22.42;;;13.52;;
21099;SDS011;10708;50.824;4.408;2022-07-23T05:39:30;19.30;;;12.82;;
21099;SDS011;10708;50.824;4.408;2022-07-23T05:44:33;18.10;;;12.82;;
21099;SDS011;10708;50.824;4.408;2022-07-23T05:49:36;21.45;;;13.00;;
21099;SDS011;10708;50.824;4.408;2022-07-23T05:54:39;21.65;;;14.05;;
21099;SDS011;10708;50.824;4.408;2022-07-23T05:59:43;20.33;;;14.05;;
21099;SDS011;10708;50.824;4.408;2022-07-23T06:04:45;21.63;;;14.70;;
21099;SDS011;10708;50.824;4.408;2022-07-23T06:09:47;19.88;;;14.50;;
21099;SDS011;10708;50.824;4.408;2022-07-23T06:14:51;21.67;;;14.35;;
21099;SDS011;10708;50.824;4.408;2022-07-23T06:19:54;20.65;;;14.55;;
21099;SDS011;10708;50.824;4.408;2022-07-23T06:24:56;23.42;;;14.73;;
21099;SDS011;10708;50.824;4.408;2022-07-23T06:29:59;19.02;;;13.70;;
21099;SDS011;10708;50.824;4.408;2022-07-23T06:35:02;22.92;;;14.23;;
21099;SDS011;10708;50.824;4.408;2022-07-23T06:40:04;17.55;;;13.27;;
21099;SDS011;10708;50.824;4.408;2022-07-23T06:45:09;18.42;;;12.88;;
21099;SDS011;10708;50.824;4.408;2022-07-23T06:50:11;18.25;;;11.40;;
21099;SDS011;10708;50.824;4.408;2022-07-23T06:55:13;32.83;;;18.05;;
21099;SDS011;10708;50.824;4.408;2022-07-23T07:00:17;18.88;;;12.45;;
21099;SDS011;10708;50.824;4.408;2022-07-23T07:05:19;18.10;;;12.68;;
21099;SDS011;10708;50.824;4.408;2022-07-23T07:10:21;13.07;;;10.18;;
21099;SDS011;10708;50.824;4.408;2022-07-23T07:15:25;16.80;;;11.75;;
21099;SDS011;10708;50.824;4.408;2022-07-23T07:20:27;18.98;;;12.18;;
21099;SDS011;10708;50.824;4.408;2022-07-23T07:25:29;14.05;;;9.70;;
21099;SDS011;10708;50.824;4.408;2022-07-23T07:30:33;14.85;;;10.27;;
21099;SDS011;10708;50.824;4.408;2022-07-23T07:35:35;11.38;;;9.38;;
21099;SDS011;10708;50.824;4.408;2022-07-23T07:40:37;13.15;;;8.45;;
21099;SDS011;10708;50.824;4.408;2022-07-23T07:45:41;13.23;;;8.50;;
21099;SDS011;10708;50.824;4.408;2022-07-23T07:50:43;14.18;;;8.93;;
21099;SDS011;10708;50.824;4.408;2022-07-23T07:55:46;8.95;;;7.97;;
21099;SDS011;10708;50.824;4.408;2022-07-23T08:00:49;10.73;;;8.30;;
21099;SDS011;10708;50.824;4.408;2022-07-23T08:05:52;15.38;;;7.53;;
21099;SDS011;10708;50.824;4.408;2022-07-23T08:10:54;10.38;;;7.82;;
21099;SDS011;10708;50.824;4.408;2022-07-23T08:15:58;15.77;;;9.27;;
21099;SDS011;10708;50.824;4.408;2022-07-23T08:21:00;9.90;;;7.65;;
21099;SDS011;10708;50.824;4.408;2022-07-23T08:26:02;11.90;;;8.30;;
21099;SDS011;10708;50.824;4.408;2022-07-23T08:31:06;11.40;;;7.78;;
21099;SDS011;10708;50.824;4.408;2022-07-23T08:36:08;12.48;;;8.43;;
21099;SDS011;10708;50.824;4.408;2022-07-23T08:41:11;13.38;;;8.45;;
21099;SDS011;10708;50.824;4.408;2022-07-23T08:46:15;13.85;;;7.22;;
21099;SDS011;10708;50.824;4.408;2022-07-23T08:51:20;9.05;;;6.85;;
21099;SDS011;10708;50.824;4.408;2022-07-23T08:56:23;10.32;;;6.95;;
21099;SDS011;10708;50.824;4.408;2022-07-23T09:01:26;10.35;;;6.75;;
21099;SDS011;10708;50.824;4.408;2022-07-23T09:06:29;11.55;;;7.70;;
21099;SDS011;10708;50.824;4.408;2022-07-23T09:11:31;11.43;;;7.50;;
21099;SDS011;10708;50.824;4.408;2022-07-23T09:16:35;8.98;;;6.63;;
21099;SDS011;10708;50.824;4.408;2022-07-23T09:21:37;8.88;;;6.57;;
21099;SDS011;10708;50.824;4.408;2022-07-23T09:26:41;10.82;;;6.57;;
21099;SDS011;10708;50.824;4.408;2022-07-23T09:31:47;8.23;;;6.43;;
21099;SDS011;10708;50.824;4.408;2022-07-23T09:36:52;9.40;;;6.40;;
21099;SDS011;10708;50.824;4.408;2022-07-23T09:41:55;7.95;;;6.50;;
21099;SDS011;10708;50.824;4.408;2022-07-23T09:46:59;8.20;;;6.32;;
21099;SDS011;10708;50.824;4.408;2022-07-23T09:52:02;8.18;;;6.10;;
21099;SDS011;10708;50.824;4.408;2022-07-23T09:57:06;8.77;;;5.18;;
21099;SDS011;10708;50.824;4.408;2022-07-23T10:02:17;8.43;;;5.28;;
21099;SDS011;10708;50.824;4.408;2022-07-23T10:07:19;9.43;;;6.15;;
21099;SDS011;10708;50.824;4.408;2022-07-23T10:12:24;9.07;;;4.82;;
21099;SDS011;10708;50.824;4.408;2022-07-23T10:17:35;8.57;;;5.20;;
21099;SDS011;10708;50.824;4.408;2022-07-23T10:22:38;5.82;;;4.53;;
21099;SDS011;10708;50.824;4.408;2022-07-23T10:33:23;6.97;;;4.60;;
21099;SDS011;10708;50.824;4.408;2022-07-23T10:38:33;6.05;;;4.50;;
21099;SDS011;10708;50.824;4.408;2022-07-23T10:43:41;6.32;;;4.47;;
21099;SDS011;10708;50.824;4.408;2022-07-23T10:48:45;7.88;;;4.07;;
21099;SDS011;10708;50.824;4.408;2022-07-23T10:53:54;5.55;;;4.10;;
21099;SDS011;10708;50.824;4.408;2022-07-23T10:58:57;5.55;;;3.75;;
21099;SDS011;10708;50.824;4.408;2022-07-23T11:04:07;4.00;;;3.33;;
21099;SDS011;10708;50.824;4.408;2022-07-23T11:14:58;4.47;;;3.42;;
21099;SDS011;10708;50.824;4.408;2022-07-23T11:20:19;5.10;;;3.55;;
21099;SDS011;10708;50.824;4.408;2022-07-23T11:25:30;5.60;;;3.28;;
21099;SDS011;10708;50.824;4.408;2022-07-23T11:30:40;7.57;;;3.88;;
21099;SDS011;10708;50.824;4.408;2022-07-23T11:35:45;7.00;;;3.90;;
21099;SDS011;10708;50.824;4.408;2022-07-23T11:40:50;6.25;;;4.28;;
21099;SDS011;10708;50.824;4.408;2022-07-23T11:45:53;6.90;;;4.57;;
21099;SDS011;10708;50.824;4.408;2022-07-23T11:51:00;6.72;;;3.85;;
21099;SDS011;10708;50.824;4.408;2022-07-23T11:56:03;9.45;;;3.92;;
21099;SDS011;10708;50.824;4.408;2022-07-23T12:01:06;5.60;;;4.00;;
21099;SDS011;10708;50.824;4.408;2022-07-23T12:06:10;7.95;;;3.78;;
21099;SDS011;10708;50.824;4.408;2022-07-23T12:11:12;9.07;;;3.97;;
21099;SDS011;10708;50.824;4.408;2022-07-23T12:16:15;5.22;;;3.97;;
21099;SDS011;10708;50.824;4.408;2022-07-23T12:21:18;7.53;;;4.75;;
21099;SDS011;10708;50.824;4.408;2022-07-23T12:26:21;6.07;;;5.00;;
21099;SDS011;10708;50.824;4.408;2022-07-23T12:31:25;6.05;;;4.07;;
21099;SDS011;10708;50.824;4.408;2022-07-23T12:36:37;7.18;;;4.95;;
21099;SDS011;10708;50.824;4.408;2022-07-23T12:41:50;7.82;;;5.07;;
21099;SDS011;10708;50.824;4.408;2022-07-23T12:46:53;8.60;;;5.65;;
21099;SDS011;10708;50.824;4.408;2022-07-23T12:51:57;7.20;;;4.68;;
21099;SDS011;10708;50.824;4.408;2022-07-23T12:56:59;7.68;;;5.35;;
21099;SDS011;10708;50.824;4.408;2022-07-23T13:02:01;7.47;;;6.00;;
21099;SDS011;10708;50.824;4.408;2022-07-23T13:07:05;9.48;;;5.95;;
21099;SDS011;10708;50.824;4.408;2022-07-23T13:12:07;9.98;;;6.43;;
21099;SDS011;10708;50.824;4.408;2022-07-23T13:17:10;8.68;;;6.32;;
21099;SDS011;10708;50.824;4.408;2022-07-23T13:22:14;11.63;;;7.82;;
21099;SDS011;10708;50.824;4.408;2022-07-23T13:27:16;10.02;;;6.15;;
21099;SDS011;10708;50.824;4.408;2022-07-23T13:32:18;7.15;;;5.47;;
21099;SDS011;10708;50.824;4.408;2022-07-23T13:37:22;8.48;;;6.25;;
21099;SDS011;10708;50.824;4.408;2022-07-23T13:42:24;6.80;;;4.78;;
21099;SDS011;10708;50.824;4.408;2022-07-23T13:47:26;5.90;;;4.35;;
21099;SDS011;10708;50.824;4.408;2022-07-23T13:52:29;8.27;;;4.25;;
21099;SDS011;10708;50.824;4.408;2022-07-23T13:57:33;5.72;;;4.60;;
21099;SDS011;10708;50.824;4.408;2022-07-23T14:02:37;5.13;;;3.90;;
21099;SDS011;10708;50.824;4.408;2022-07-23T14:07:41;7.03;;;4.50;;
21099;SDS011;10708;50.824;4.408;2022-07-23T14:12:45;5.00;;;4.38;;
21099;SDS011;10708;50.824;4.408;2022-07-23T14:17:47;6.07;;;4.10;;
21099;SDS011;10708;50.824;4.408;2022-07-23T14:22:52;5.82;;;4.07;;
21099;SDS011;10708;50.824;4.408;2022-07-23T14:27:56;6.45;;;4.07;;
21099;SDS011;10708;50.824;4.408;2022-07-23T14:32:58;5.28;;;4.22;;
21099;SDS011;10708;50.824;4.408;2022-07-23T14:38:02;4.65;;;4.18;;
21099;SDS011;10708;50.824;4.408;2022-07-23T14:43:04;6.07;;;4.07;;
21099;SDS011;10708;50.824;4.408;2022-07-23T14:48:06;7.18;;;4.57;;
21099;SDS011;10708;50.824;4.408;2022-07-23T14:53:10;5.25;;;4.45;;
21099;SDS011;10708;50.824;4.408;2022-07-23T14:58:12;5.90;;;4.07;;
21099;SDS011;10708;50.824;4.408;2022-07-23T15:03:14;6.80;;;4.65;;
21099;SDS011;10708;50.824;4.408;2022-07-23T15:08:18;5.90;;;4.57;;
21099;SDS011;10708;50.824;4.408;2022-07-23T15:13:20;6.47;;;4.32;;
21099;SDS011;10708;50.824;4.408;2022-07-23T15:18:22;5.30;;;4.28;;
21099;SDS011;10708;50.824;4.408;2022-07-23T15:23:26;6.78;;;4.78;;
21099;SDS011;10708;50.824;4.408;2022-07-23T15:28:28;5.43;;;4.78;;
21099;SDS011;10708;50.824;4.408;2022-07-23T15:33:30;6.55;;;4.95;;
21099;SDS011;10708;50.824;4.408;2022-07-23T15:38:34;8.00;;;4.65;;
21099;SDS011;10708;50.824;4.408;2022-07-23T15:43:36;5.85;;;4.45;;
21099;SDS011;10708;50.824;4.408;2022-07-23T15:48:38;7.25;;;5.22;;
21099;SDS011;10708;50.824;4.408;2022-07-23T15:53:42;6.28;;;4.63;;
21099;SDS011;10708;50.824;4.408;2022-07-23T15:58:44;5.50;;;4.55;;
21099;SDS011;10708;50.824;4.408;2022-07-23T16:03:46;6.53;;;4.70;;
21099;SDS011;10708;50.824;4.408;2022-07-23T16:08:50;4.90;;;4.40;;
21099;SDS011;10708;50.824;4.408;2022-07-23T16:13:52;5.47;;;4.88;;
21099;SDS011;10708;50.824;4.408;2022-07-23T16:18:55;7.68;;;5.10;;
21099;SDS011;10708;50.824;4.408;2022-07-23T16:23:59;5.93;;;4.63;;
21099;SDS011;10708;50.824;4.408;2022-07-23T16:29:01;5.07;;;4.60;;
21099;SDS011;10708;50.824;4.408;2022-07-23T16:34:04;5.32;;;4.53;;
21099;SDS011;10708;50.824;4.408;2022-07-23T16:39:08;5.50;;;4.32;;
21099;SDS011;10708;50.824;4.408;2022-07-23T16:44:10;7.05;;;4.53;;
21099;SDS011;10708;50.824;4.408;2022-07-23T16:49:12;5.88;;;4.53;;
21099;SDS011;10708;50.824;4.408;2022-07-23T16:54:15;8.13;;;5.00;;
21099;SDS011;10708;50.824;4.408;2022-07-23T16:59:18;5.93;;;4.75;;
21099;SDS011;10708;50.824;4.408;2022-07-23T17:04:20;5.07;;;4.57;;
21099;SDS011;10708;50.824;4.408;2022-07-23T17:09:24;5.07;;;4.20;;
21099;SDS011;10708;50.824;4.408;2022-07-23T17:14:26;5.50;;;4.40;;
21099;SDS011;10708;50.824;4.408;2022-07-23T17:19:29;6.20;;;4.55;;
21099;SDS011;10708;50.824;4.408;2022-07-23T17:24:33;9.68;;;4.50;;
21099;SDS011;10708;50.824;4.408;2022-07-23T17:29:38;8.77;;;4.43;;
21099;SDS011;10708;50.824;4.408;2022-07-23T17:34:40;8.18;;;4.90;;
21099;SDS011;10708;50.824;4.408;2022-07-23T17:39:44;6.15;;;4.60;;
21099;SDS011;10708;50.824;4.408;2022-07-23T17:44:46;8.43;;;4.95;;
21099;SDS011;10708;50.824;4.408;2022-07-23T17:49:48;6.47;;;4.75;;
21099;SDS011;10708;50.824;4.408;2022-07-23T17:54:52;6.60;;;5.30;;
21099;SDS011;10708;50.824;4.408;2022-07-23T17:59:54;6.78;;;5.15;;
21099;SDS011;10708;50.824;4.408;2022-07-23T18:04:56;7.30;;;5.00;;
21099;SDS011;10708;50.824;4.408;2022-07-23T18:09:59;6.22;;;5.10;;
21099;SDS011;10708;50.824;4.408;2022-07-23T18:15:02;7.30;;;5.30;;
21099;SDS011;10708;50.824;4.408;2022-07-23T18:20:06;8.20;;;5.38;;
21099;SDS011;10708;50.824;4.408;2022-07-23T18:25:13;5.97;;;5.07;;
21099;SDS011;10708;50.824;4.408;2022-07-23T18:30:15;6.50;;;5.63;;
21099;SDS011;10708;50.824;4.408;2022-07-23T18:35:17;9.50;;;5.80;;
21099;SDS011;10708;50.824;4.408;2022-07-23T18:40:21;7.72;;;5.50;;
21099;SDS011;10708;50.824;4.408;2022-07-23T18:45:23;7.53;;;5.63;;
21099;SDS011;10708;50.824;4.408;2022-07-23T18:50:26;6.18;;;5.57;;
21099;SDS011;10708;50.824;4.408;2022-07-23T18:55:29;7.32;;;5.60;;
21099;SDS011;10708;50.824;4.408;2022-07-23T19:00:32;6.35;;;5.50;;
21099;SDS011;10708;50.824;4.408;2022-07-23T19:05:36;8.30;;;5.68;;
21099;SDS011;10708;50.824;4.408;2022-07-23T19:10:39;10.93;;;6.15;;
21099;SDS011;10708;50.824;4.408;2022-07-23T19:15:41;7.60;;;5.88;;
21099;SDS011;10708;50.824;4.408;2022-07-23T19:20:46;7.03;;;5.05;;
21099;SDS011;10708;50.824;4.408;2022-07-23T19:25:49;8.32;;;5.30;;
21099;SDS011;10708;50.824;4.408;2022-07-23T19:30:51;12.90;;;5.45;;
21099;SDS011;10708;50.824;4.408;2022-07-23T19:35:54;6.90;;;5.05;;
21099;SDS011;10708;50.824;4.408;2022-07-23T19:40:58;6.30;;;5.13;;
21099;SDS011;10708;50.824;4.408;2022-07-23T19:46:00;9.82;;;7.07;;
21099;SDS011;10708;50.824;4.408;2022-07-23T19:51:02;7.90;;;5.57;;
21099;SDS011;10708;50.824;4.408;2022-07-23T19:56:06;9.38;;;5.93;;
21099;SDS011;10708;50.824;4.408;2022-07-23T20:01:08;7.55;;;5.35;;
21099;SDS011;10708;50.824;4.408;2022-07-23T20:06:11;8.50;;;5.57;;
21099;SDS011;10708;50.824;4.408;2022-07-23T20:11:14;8.43;;;6.00;;
21099;SDS011;10708;50.824;4.408;2022-07-23T20:16:16;12.05;;;7.57;;
21099;SDS011;10708;50.824;4.408;2022-07-23T20:21:18;9.77;;;7.50;;
21099;SDS011;10708;50.824;4.408;2022-07-23T20:26:22;10.60;;;7.03;;
21099;SDS011;10708;50.824;4.408;2022-07-23T20:31:25;9.73;;;6.93;;
21099;SDS011;10708;50.824;4.408;2022-07-23T20:36:27;10.43;;;7.47;;
21099;SDS011;10708;50.824;4.408;2022-07-23T20:41:31;12.00;;;7.82;;
21099;SDS011;10708;50.824;4.408;2022-07-23T20:46:34;9.70;;;6.72;;
21099;SDS011;10708;50.824;4.408;2022-07-23T20:51:36;9.50;;;6.88;;
21099;SDS011;10708;50.824;4.408;2022-07-23T20:56:40;10.43;;;7.15;;
21099;SDS011;10708;50.824;4.408;2022-07-23T21:01:42;6.95;;;5.78;;
21099;SDS011;10708;50.824;4.408;2022-07-23T21:06:44;8.90;;;6.00;;
21099;SDS011;10708;50.824;4.408;2022-07-23T21:11:48;8.40;;;7.40;;
21099;SDS011;10708;50.824;4.408;2022-07-23T21:16:50;12.65;;;7.57;;
21099;SDS011;10708;50.824;4.408;2022-07-23T21:21:52;13.80;;;8.27;;
21099;SDS011;10708;50.824;4.408;2022-07-23T21:26:55;14.85;;;9.38;;
21099;SDS011;10708;50.824;4.408;2022-07-23T21:31:58;13.38;;;8.70;;
21099;SDS011;10708;50.824;4.408;2022-07-23T21:37:00;11.82;;;8.35;;
21099;SDS011;10708;50.824;4.408;2022-07-23T21:42:04;9.45;;;7.55;;
21099;SDS011;10708;50.824;4.408;2022-07-23T21:47:06;13.20;;;8.10;;
21099;SDS011;10708;50.824;4.408;2022-07-23T21:52:08;13.10;;;9.70;;
21099;SDS011;10708;50.824;4.408;2022-07-23T21:57:12;17.52;;;10.05;;
21099;SDS011;10708;50.824;4.408;2022-07-23T22:02:14;14.73;;;11.00;;
21099;SDS011;10708;50.824;4.408;2022-07-23T22:07:16;15.07;;;10.80;;
21099;SDS011;10708;50.824;4.408;2022-07-23T22:12:20;17.55;;;12.10;;
21099;SDS011;10708;50.824;4.408;2022-07-23T22:17:22;16.52;;;11.90;;
21099;SDS011;10708;50.824;4.408;2022-07-23T22:22:24;14.57;;;11.82;;
21099;SDS011;10708;50.824;4.408;2022-07-23T22:27:28;17.17;;;11.88;;
21099;SDS011;10708;50.824;4.408;2022-07-23T22:32:30;16.05;;;13.85;;
21099;SDS011;10708;50.824;4.408;2022-07-23T22:37:32;19.70;;;15.48;;
21099;SDS011;10708;50.824;4.408;2022-07-23T22:42:35;23.30;;;18.20;;
21099;SDS011;10708;50.824;4.408;2022-07-23T22:47:38;25.08;;;19.23;;
21099;SDS011;10708;50.824;4.408;2022-07-23T22:52:40;29.45;;;21.00;;
21099;SDS011;10708;50.824;4.408;2022-07-23T22:57:44;30.40;;;20.65;;
21099;SDS011;10708;50.824;4.408;2022-07-23T23:02:46;31.15;;;20.92;;
21099;SDS011;10708;50.824;4.408;2022-07-23T23:07:49;30.20;;;18.83;;
21099;SDS011;10708;50.824;4.408;2022-07-23T23:12:52;32.78;;;19.58;;
21099;SDS011;10708;50.824;4.408;2022-07-23T23:17:55;27.00;;;18.90;;
21099;SDS011;10708;50.824;4.408;2022-07-23T23:22:57;29.50;;;20.88;;
21099;SDS011;10708;50.824;4.408;2022-07-23T23:28:00;33.25;;;23.48;;
21099;SDS011;10708;50.824;4.408;2022-07-23T23:33:03;34.33;;;22.95;;
21099;SDS011;10708;50.824;4.408;2022-07-23T23:38:05;35.75;;;22.80;;
21099;SDS011;10708;50.824;4.408;2022-07-23T23:43:09;35.35;;;22.05;;
21099;SDS011;10708;50.824;4.408;2022-07-23T23:48:11;32.15;;;23.50;;
21099;SDS011;10708;50.824;4.408;2022-07-23T23:53:14;34.60;;;23.15;;
21099;SDS011;10708;50.824;4.408;2022-07-23T23:58:17;31.27;;;22.05;;
